createdAt,value
2023-01-27T00:01:09.000Z,13.48
2023-01-27T00:03:35.896Z,13.44
2023-01-27T00:06:06.559Z,13.53
2023-01-27T00:08:33.440Z,13.43
2023-01-27T00:11:19.331Z,13.41
2023-01-27T00:13:46.076Z,13.50
2023-01-27T00:16:13.273Z,13.43
2023-01-27T00:18:40.103Z,13.45
2023-01-27T00:21:25.720Z,13.41
2023-01-27T00:24:11.192Z,13.36
2023-01-27T00:26:38.035Z,13.39
2023-01-27T00:29:04.963Z,13.37
2023-01-27T00:31:50.755Z,13.38
2023-01-27T00:34:18.009Z,13.44
2023-01-27T00:36:45.066Z,13.36
2023-01-27T00:39:12.715Z,13.31
2023-01-27T00:41:40.250Z,13.29
2023-01-27T00:44:12.723Z,13.32
2023-01-27T00:46:41.330Z,13.26
2023-01-27T00:49:09.401Z,13.19
2023-01-27T00:51:36.943Z,13.26
2023-01-27T00:54:04.221Z,13.21
2023-01-27T00:56:31.308Z,13.20
2023-01-27T00:58:58.211Z,13.09
2023-01-27T01:01:25.182Z,13.19
2023-01-27T01:03:55.228Z,13.13
2023-01-27T01:06:22.130Z,13.14
2023-01-27T01:08:49.051Z,13.16
2023-01-27T01:11:17.537Z,13.17
2023-01-27T01:13:45.820Z,13.16
2023-01-27T01:16:12.566Z,13.09
2023-01-27T01:18:39.435Z,13.10
2023-01-27T01:21:07.440Z,13.09
2023-01-27T01:23:38.120Z,13.06
2023-01-27T01:26:05.384Z,13.01
2023-01-27T01:28:32.472Z,13.04
2023-01-27T01:31:09.543Z,13.01
2023-01-27T01:33:37.241Z,13.01
2023-01-27T01:36:11.847Z,12.99
2023-01-27T01:38:38.658Z,12.96
2023-01-27T01:41:14.260Z,12.93
2023-01-27T01:43:41.218Z,12.92
2023-01-27T01:46:11.314Z,12.86
2023-01-27T01:48:50.564Z,12.93
2023-01-27T01:51:32.654Z,12.92
2023-01-27T01:54:25.378Z,12.94
2023-01-27T01:57:30.235Z,12.90
2023-01-27T02:00:03.079Z,12.82
2023-01-27T02:02:41.710Z,12.89
2023-01-27T02:05:16.615Z,12.83
2023-01-27T02:07:59.333Z,12.88
2023-01-27T02:10:26.296Z,12.81
2023-01-27T02:12:53.338Z,12.80
2023-01-27T02:15:21.651Z,12.78
2023-01-27T02:17:49.306Z,12.77
2023-01-27T02:20:27.781Z,12.70
2023-01-27T02:22:57.332Z,12.71
2023-01-27T02:25:28.132Z,12.63
2023-01-27T02:27:55.040Z,12.67
2023-01-27T02:30:22.692Z,12.68
2023-01-27T02:32:49.518Z,12.64
2023-01-27T02:35:22.828Z,12.58
2023-01-27T02:37:51.713Z,12.63
2023-01-27T02:40:19.259Z,12.62
2023-01-27T02:42:46.140Z,12.56
2023-01-27T02:45:13.184Z,12.52
2023-01-27T02:47:40.279Z,12.61
2023-01-27T02:50:07.678Z,12.52
2023-01-27T02:52:34.874Z,12.55
2023-01-27T02:55:01.604Z,12.54
2023-01-27T02:57:30.047Z,12.50
2023-01-27T03:00:22.832Z,12.50
2023-01-27T03:02:52.641Z,12.56
2023-01-27T03:05:19.545Z,12.51
2023-01-27T03:07:46.506Z,12.51
2023-01-27T03:10:13.685Z,12.49
2023-01-27T03:12:40.670Z,12.55
2023-01-27T03:15:27.106Z,12.50
2023-01-27T03:18:32.498Z,12.46
2023-01-27T03:21:04.612Z,12.40
2023-01-27T03:23:34.900Z,12.42
2023-01-27T03:26:05.917Z,12.46
2023-01-27T03:28:33.533Z,12.41
2023-01-27T03:31:09.566Z,12.46
2023-01-27T03:33:47.676Z,12.44
2023-01-27T03:36:55.848Z,12.41
2023-01-27T03:39:42.106Z,12.44
2023-01-27T03:42:27.357Z,12.39
2023-01-27T03:45:14.494Z,12.42
2023-01-27T03:47:41.753Z,12.43
2023-01-27T03:50:13.861Z,12.48
2023-01-27T03:52:40.669Z,12.48
2023-01-27T03:55:09.512Z,12.42
2023-01-27T03:57:38.242Z,12.43
2023-01-27T04:00:05.413Z,12.51
2023-01-27T04:02:58.372Z,12.55
2023-01-27T04:05:44.020Z,12.48
2023-01-27T04:08:10.798Z,12.49
2023-01-27T04:10:37.519Z,12.48
2023-01-27T04:13:04.206Z,12.43
2023-01-27T04:15:31.100Z,12.42
2023-01-27T04:17:57.777Z,12.50
2023-01-27T04:20:24.645Z,12.42
2023-01-27T04:22:51.644Z,12.44
2023-01-27T04:25:18.910Z,12.46
2023-01-27T04:27:45.919Z,12.48
2023-01-27T04:30:13.193Z,12.46
2023-01-27T04:32:40.077Z,12.47
2023-01-27T04:35:07.333Z,12.41
2023-01-27T04:37:34.030Z,12.44
2023-01-27T04:40:01.040Z,12.46
2023-01-27T04:42:28.025Z,12.49
2023-01-27T04:44:54.835Z,12.55
2023-01-27T04:47:21.812Z,12.55
2023-01-27T04:49:48.738Z,12.52
2023-01-27T04:52:15.432Z,12.48
2023-01-27T04:54:42.173Z,12.47
2023-01-27T04:57:10.474Z,12.45
2023-01-27T04:59:37.309Z,12.40
2023-01-27T05:02:04.793Z,12.38
2023-01-27T05:04:32.499Z,12.54
2023-01-27T05:06:59.358Z,12.49
2023-01-27T05:09:26.205Z,12.47
2023-01-27T05:11:53.075Z,12.49
2023-01-27T05:14:20.188Z,12.46
2023-01-27T05:16:47.096Z,12.48
2023-01-27T05:19:13.960Z,12.51
2023-01-27T05:21:40.833Z,12.52
2023-01-27T05:24:07.786Z,12.52
2023-01-27T05:26:34.753Z,12.49
2023-01-27T05:29:01.579Z,12.46
2023-01-27T05:31:34.173Z,12.41
2023-01-27T05:34:02.123Z,12.46
2023-01-27T05:36:29.619Z,12.47
2023-01-27T05:38:57.824Z,12.48
2023-01-27T05:41:25.546Z,12.42
2023-01-27T05:43:54.767Z,12.45
2023-01-27T05:46:24.280Z,12.41
2023-01-27T05:48:56.409Z,12.45
2023-01-27T05:51:25.196Z,12.46
2023-01-27T05:53:53.928Z,12.45
2023-01-27T05:56:21.394Z,12.43
2023-01-27T05:58:48.352Z,12.44
2023-01-27T06:01:23.522Z,12.47
2023-01-27T06:03:50.632Z,12.46
2023-01-27T06:06:20.099Z,12.51
2023-01-27T06:08:47.582Z,12.45
2023-01-27T06:11:15.973Z,12.45
2023-01-27T06:13:42.951Z,12.51
2023-01-27T06:16:12.351Z,12.52
2023-01-27T06:18:42.482Z,12.46
2023-01-27T06:21:11.509Z,12.44
2023-01-27T06:23:39.583Z,12.44
2023-01-27T06:26:15.720Z,12.47
2023-01-27T06:28:43.116Z,12.44
2023-01-27T06:31:12.589Z,12.45
2023-01-27T06:33:39.610Z,12.49
2023-01-27T06:36:13.038Z,12.41
2023-01-27T06:38:40.234Z,12.52
2023-01-27T06:41:07.646Z,12.49
2023-01-27T06:43:34.931Z,12.45
2023-01-27T06:46:05.160Z,12.48
2023-01-27T06:48:32.768Z,12.50
2023-01-27T06:50:59.747Z,12.44
2023-01-27T06:53:26.699Z,12.50
2023-01-27T06:56:00.956Z,12.54
2023-01-27T06:58:29.262Z,12.47
2023-01-27T07:00:56.963Z,12.53
2023-01-27T07:03:24.491Z,12.49
2023-01-27T07:05:52.532Z,12.42
2023-01-27T07:08:19.464Z,12.59
2023-01-27T07:10:46.295Z,12.59
2023-01-27T07:13:14.829Z,12.53
2023-01-27T07:15:42.132Z,12.59
2023-01-27T07:18:10.843Z,12.61
2023-01-27T07:20:37.983Z,12.65
2023-01-27T07:23:05.557Z,12.66
2023-01-27T07:25:35.063Z,12.68
2023-01-27T07:28:02.451Z,12.70
2023-01-27T07:30:30.369Z,12.73
2023-01-27T07:33:04.660Z,12.74
2023-01-27T07:35:31.461Z,12.77
2023-01-27T07:37:58.332Z,12.80
2023-01-27T07:40:25.279Z,12.83
2023-01-27T07:42:52.152Z,12.80
2023-01-27T07:45:19.856Z,12.84
2023-01-27T07:47:46.596Z,12.85
2023-01-27T07:50:14.259Z,12.93
2023-01-27T07:52:41.173Z,12.90
2023-01-27T07:55:08.367Z,12.94
2023-01-27T07:57:35.176Z,12.96
2023-01-27T08:00:02.420Z,12.93
2023-01-27T08:02:39.219Z,12.98
2023-01-27T08:05:06.431Z,12.95
2023-01-27T08:07:33.177Z,12.99
2023-01-27T08:10:00.225Z,12.98
2023-01-27T08:12:27.098Z,12.98
2023-01-27T08:14:53.845Z,13.04
2023-01-27T08:17:20.646Z,13.02
2023-01-27T08:19:48.533Z,13.01
2023-01-27T08:22:19.834Z,13.00
2023-01-27T08:24:47.045Z,13.03
2023-01-27T08:27:13.878Z,13.04
2023-01-27T08:29:40.727Z,13.03
2023-01-27T08:32:07.797Z,13.08
2023-01-27T08:34:34.966Z,13.09
2023-01-27T08:37:01.992Z,13.05
2023-01-27T08:39:29.214Z,13.07
2023-01-27T08:41:56.096Z,13.25
2023-01-27T08:44:24.268Z,13.73
2023-01-27T08:46:51.275Z,13.96
2023-01-27T08:49:18.271Z,14.14
2023-01-27T08:51:45.164Z,14.26
2023-01-27T08:54:12.174Z,14.38
2023-01-27T08:56:39.108Z,14.44
2023-01-27T08:59:06.089Z,14.51
2023-01-27T09:01:33.125Z,14.61
2023-01-27T09:04:00.096Z,14.38
2023-01-27T09:06:28.880Z,13.99
2023-01-27T09:09:15.912Z,13.83
2023-01-27T09:11:45.402Z,13.78
2023-01-27T09:14:12.374Z,13.74
2023-01-27T09:16:39.438Z,13.73
2023-01-27T09:19:06.401Z,13.70
2023-01-27T09:21:33.301Z,13.69
2023-01-27T09:24:00.148Z,13.67
2023-01-27T09:26:27.037Z,13.67
2023-01-27T09:28:53.785Z,13.68
2023-01-27T09:31:20.913Z,13.70
2023-01-27T09:33:50.277Z,13.68
2023-01-27T09:36:19.055Z,13.72
2023-01-27T09:38:52.435Z,13.70
2023-01-27T09:41:40.251Z,13.72
2023-01-27T09:44:23.495Z,13.73
2023-01-27T09:47:11.817Z,13.72
2023-01-27T09:49:59.661Z,13.72
2023-01-27T09:53:04.145Z,13.70
2023-01-27T09:55:52.619Z,13.73
2023-01-27T09:58:52.959Z,13.77
2023-01-27T10:01:32.565Z,13.77
2023-01-27T10:04:08.376Z,13.76
2023-01-27T10:06:59.545Z,13.78
2023-01-27T10:09:39.524Z,13.82
2023-01-27T10:12:58.286Z,13.80
2023-01-27T10:15:43.875Z,13.81
2023-01-27T10:18:34.965Z,13.88
2023-01-27T10:21:10.691Z,13.87
2023-01-27T10:24:14.762Z,13.85
2023-01-27T10:26:49.745Z,13.86
2023-01-27T10:29:26.708Z,13.86
2023-01-27T10:32:01.649Z,13.89
2023-01-27T10:34:31.395Z,13.92
2023-01-27T10:37:32.478Z,13.92
2023-01-27T10:40:08.815Z,13.93
2023-01-27T10:42:38.626Z,13.95
2023-01-27T10:45:08.402Z,13.90
2023-01-27T10:47:51.246Z,13.93
2023-01-27T10:50:43.269Z,13.91
2023-01-27T10:53:28.781Z,13.99
2023-01-27T10:55:55.507Z,13.95
2023-01-27T10:58:34.649Z,13.97
2023-01-27T11:01:20.469Z,13.96
2023-01-27T11:04:16.672Z,13.97
2023-01-27T11:06:46.043Z,14.00
2023-01-27T11:10:01.021Z,14.00
2023-01-27T11:12:35.201Z,14.01
2023-01-27T11:15:14.558Z,13.98
2023-01-27T11:17:46.009Z,14.05
2023-01-27T11:20:24.915Z,14.05
2023-01-27T11:23:10.017Z,14.06
2023-01-27T11:26:14.665Z,14.06
2023-01-27T11:28:54.860Z,14.07
2023-01-27T11:31:40.395Z,14.03
2023-01-27T11:34:42.338Z,14.17
2023-01-27T11:37:30.653Z,14.26
2023-01-27T11:39:58.099Z,14.30
2023-01-27T11:42:31.773Z,14.31
2023-01-27T11:44:59.786Z,14.35
2023-01-27T11:47:34.797Z,14.32
2023-01-27T11:50:05.459Z,14.29
2023-01-27T11:52:33.071Z,14.25
2023-01-27T11:55:02.926Z,14.29
2023-01-27T11:57:29.719Z,14.25
2023-01-27T12:00:27.544Z,14.19
2023-01-27T12:03:23.421Z,14.20
2023-01-27T12:06:00.052Z,14.23
2023-01-27T12:08:49.634Z,14.23
2023-01-27T12:11:28.133Z,14.19
2023-01-27T12:14:04.047Z,14.21
2023-01-27T12:16:52.063Z,14.19
2023-01-27T12:19:40.218Z,14.22
2023-01-27T12:22:15.179Z,14.23
2023-01-27T12:24:49.829Z,14.24
2023-01-27T12:27:26.407Z,14.21
2023-01-27T12:30:00.284Z,14.12
2023-01-27T12:32:40.725Z,14.17
2023-01-27T12:35:18.473Z,14.17
2023-01-27T12:37:46.132Z,14.21
2023-01-27T12:40:25.164Z,14.19
2023-01-27T12:43:16.452Z,14.28
2023-01-27T12:45:44.060Z,14.37
2023-01-27T12:48:13.472Z,14.42
2023-01-27T12:50:41.731Z,14.45
2023-01-27T12:53:15.017Z,14.42
2023-01-27T12:56:05.032Z,14.44
2023-01-27T12:58:36.029Z,14.49
2023-01-27T13:01:07.806Z,14.48
2023-01-27T13:03:40.863Z,14.48
2023-01-27T13:06:08.515Z,14.37
2023-01-27T13:08:39.516Z,14.37
2023-01-27T13:11:07.074Z,14.32
2023-01-27T13:13:34.830Z,14.34
2023-01-27T13:16:20.466Z,14.38
2023-01-27T13:18:54.983Z,14.37
2023-01-27T13:21:27.195Z,14.34
2023-01-27T13:23:55.476Z,14.35
2023-01-27T13:26:29.566Z,14.40
2023-01-27T13:29:02.034Z,14.37
2023-01-27T13:31:47.331Z,14.34
2023-01-27T13:34:26.832Z,14.35
2023-01-27T13:37:04.547Z,14.31
2023-01-27T13:39:40.553Z,14.45
2023-01-27T13:42:42.588Z,14.51
2023-01-27T13:45:47.840Z,14.55
2023-01-27T13:48:37.850Z,14.56
2023-01-27T13:51:15.330Z,14.53
2023-01-27T13:53:43.601Z,14.48
2023-01-27T13:56:19.696Z,14.50
2023-01-27T13:58:58.462Z,14.46
2023-01-27T14:02:00.785Z,14.46
2023-01-27T14:04:54.237Z,14.44
2023-01-27T14:07:28.708Z,14.48
2023-01-27T14:10:28.631Z,14.42
2023-01-27T14:13:14.188Z,14.41
2023-01-27T14:15:45.912Z,14.44
2023-01-27T14:18:21.933Z,14.44
2023-01-27T14:21:25.012Z,14.41
2023-01-27T14:24:05.728Z,14.42
2023-01-27T14:26:44.457Z,14.44
2023-01-27T14:29:21.455Z,14.41
2023-01-27T14:32:12.672Z,14.45
2023-01-27T14:34:54.617Z,14.47
2023-01-27T14:37:39.894Z,14.43
2023-01-27T14:40:31.405Z,14.44
2023-01-27T14:43:13.432Z,14.46
2023-01-27T14:45:56.806Z,14.46
2023-01-27T14:48:38.906Z,14.47
2023-01-27T14:51:12.926Z,14.47
2023-01-27T14:53:46.564Z,14.51
2023-01-27T14:56:32.140Z,14.44
2023-01-27T14:59:25.434Z,14.42
2023-01-27T15:01:56.739Z,14.43
2023-01-27T15:04:37.048Z,14.42
2023-01-27T15:07:23.630Z,14.40
2023-01-27T15:10:17.574Z,14.46
2023-01-27T15:13:03.208Z,14.45
2023-01-27T15:15:32.933Z,14.42
2023-01-27T15:18:32.008Z,14.39
2023-01-27T15:21:02.582Z,14.54
2023-01-27T15:23:53.373Z,14.60
2023-01-27T15:26:25.101Z,14.64
2023-01-27T15:28:52.408Z,14.66
2023-01-27T15:31:19.553Z,14.69
2023-01-27T15:33:50.123Z,14.71
2023-01-27T15:36:31.952Z,14.75
2023-01-27T15:39:10.923Z,14.55
2023-01-27T15:41:50.944Z,14.62
2023-01-27T15:44:19.029Z,14.60
2023-01-27T15:46:49.334Z,14.61
2023-01-27T15:49:21.637Z,14.62
2023-01-27T15:51:51.787Z,14.67
2023-01-27T15:54:24.821Z,14.59
2023-01-27T15:56:54.040Z,14.57
2023-01-27T15:59:24.799Z,14.55
2023-01-27T16:02:13.880Z,14.55
2023-01-27T16:04:41.062Z,14.56
2023-01-27T16:07:21.212Z,14.57
2023-01-27T16:09:51.563Z,14.56
2023-01-27T16:12:26.948Z,14.58
2023-01-27T16:15:15.813Z,14.55
2023-01-27T16:18:18.744Z,14.58
2023-01-27T16:21:02.719Z,14.53
2023-01-27T16:23:54.278Z,14.52
2023-01-27T16:26:33.008Z,14.57
2023-01-27T16:29:13.474Z,14.55
2023-01-27T16:31:42.068Z,14.53
2023-01-27T16:34:21.770Z,14.53
2023-01-27T16:37:14.795Z,14.51
2023-01-27T16:39:55.508Z,14.49
2023-01-27T16:42:29.709Z,14.49
2023-01-27T16:45:00.650Z,14.47
2023-01-27T16:47:43.513Z,14.51
2023-01-27T16:50:45.845Z,14.45
2023-01-27T16:53:19.957Z,14.49
2023-01-27T16:56:07.664Z,14.45
2023-01-27T16:58:46.083Z,14.49
2023-01-27T17:01:28.538Z,14.46
2023-01-27T17:04:04.898Z,14.41
2023-01-27T17:06:38.303Z,14.45
2023-01-27T17:09:20.755Z,14.39
2023-01-27T17:11:47.790Z,14.32
2023-01-27T17:14:30.015Z,14.35
2023-01-27T17:17:06.307Z,14.26
2023-01-27T17:19:37.167Z,14.37
2023-01-27T17:22:10.201Z,14.36
2023-01-27T17:24:41.853Z,14.35
2023-01-27T17:27:26.437Z,14.38
2023-01-27T17:30:00.846Z,14.37
2023-01-27T17:32:34.694Z,14.46
2023-01-27T17:35:06.262Z,14.51
2023-01-27T17:37:33.587Z,14.49
2023-01-27T17:40:03.678Z,14.53
2023-01-27T17:42:33.245Z,14.53
2023-01-27T17:45:24.055Z,14.58
2023-01-27T17:47:51.086Z,14.64
2023-01-27T17:50:20.292Z,14.72
2023-01-27T17:52:52.606Z,14.73
2023-01-27T17:55:25.600Z,14.78
2023-01-27T17:58:04.373Z,14.82
2023-01-27T18:00:38.572Z,14.83
2023-01-27T18:03:10.930Z,14.80
2023-01-27T18:05:38.311Z,14.83
2023-01-27T18:08:06.635Z,14.82
2023-01-27T18:10:33.438Z,14.81
2023-01-27T18:13:13.831Z,14.82
2023-01-27T18:15:47.869Z,14.82
2023-01-27T18:18:26.980Z,14.80
2023-01-27T18:20:59.264Z,14.75
2023-01-27T18:23:28.744Z,14.81
2023-01-27T18:26:07.660Z,14.81
2023-01-27T18:28:37.515Z,14.77
2023-01-27T18:31:12.403Z,14.81
2023-01-27T18:33:39.223Z,14.72
2023-01-27T18:36:06.259Z,14.75
2023-01-27T18:38:35.944Z,14.73
2023-01-27T18:41:22.961Z,14.73
2023-01-27T18:43:49.825Z,14.69
2023-01-27T18:46:16.519Z,14.72
2023-01-27T18:48:45.850Z,14.72
2023-01-27T18:51:15.453Z,14.76
2023-01-27T18:53:43.226Z,14.74
2023-01-27T18:56:10.169Z,14.72
2023-01-27T18:58:38.156Z,14.69
2023-01-27T19:01:12.955Z,14.73
2023-01-27T19:03:40.152Z,14.70
2023-01-27T19:06:16.696Z,14.72
2023-01-27T19:08:44.138Z,14.73
2023-01-27T19:11:16.037Z,14.77
2023-01-27T19:13:44.293Z,14.71
2023-01-27T19:16:15.119Z,14.77
2023-01-27T19:18:43.127Z,14.71
2023-01-27T19:21:13.307Z,14.64
2023-01-27T19:23:44.452Z,14.71
2023-01-27T19:26:17.600Z,14.71
2023-01-27T19:28:46.756Z,14.67
2023-01-27T19:31:13.979Z,14.69
2023-01-27T19:33:44.018Z,14.65
2023-01-27T19:36:16.905Z,14.68
2023-01-27T19:38:43.956Z,14.63
2023-01-27T19:41:11.002Z,14.65
2023-01-27T19:43:38.242Z,14.68
2023-01-27T19:46:18.213Z,14.65
2023-01-27T19:48:45.204Z,14.63
2023-01-27T19:51:12.053Z,14.61
2023-01-27T19:53:39.047Z,14.64
2023-01-27T19:56:16.033Z,14.60
2023-01-27T19:58:46.020Z,14.61
2023-01-27T20:01:13.557Z,14.58
2023-01-27T20:03:40.406Z,14.57
2023-01-27T20:06:18.858Z,14.60
2023-01-27T20:08:46.152Z,14.58
2023-01-27T20:11:32.889Z,14.56
2023-01-27T20:14:00.932Z,14.70
2023-01-27T20:16:28.181Z,14.73
2023-01-27T20:18:55.274Z,14.75
2023-01-27T20:21:22.339Z,14.76
2023-01-27T20:23:49.245Z,14.76
2023-01-27T20:26:17.093Z,14.76
2023-01-27T20:28:44.822Z,14.73
2023-01-27T20:31:12.823Z,14.76
2023-01-27T20:33:39.569Z,14.73
2023-01-27T20:36:08.662Z,14.67
2023-01-27T20:38:35.652Z,14.67
2023-01-27T20:41:15.355Z,14.66
2023-01-27T20:43:42.138Z,14.61
2023-01-27T20:46:12.010Z,14.62
2023-01-27T20:48:38.847Z,14.49
2023-01-27T20:51:08.947Z,14.46
2023-01-27T20:53:41.895Z,14.45
2023-01-27T20:56:09.262Z,14.39
2023-01-27T20:58:36.150Z,14.36
2023-01-27T21:01:08.307Z,14.38
2023-01-27T21:03:36.520Z,14.38
2023-01-27T21:06:04.601Z,14.42
2023-01-27T21:08:33.068Z,14.38
2023-01-27T21:11:05.289Z,14.54
2023-01-27T21:13:55.061Z,14.43
2023-01-27T21:16:21.914Z,14.30
2023-01-27T21:18:49.065Z,14.26
2023-01-27T21:21:28.379Z,14.14
2023-01-27T21:23:56.035Z,14.12
2023-01-27T21:26:23.747Z,14.13
2023-01-27T21:28:50.461Z,14.13
2023-01-27T21:31:19.819Z,14.04
2023-01-27T21:33:46.919Z,14.02
2023-01-27T21:36:13.856Z,14.03
2023-01-27T21:38:40.680Z,13.96
2023-01-27T21:41:37.097Z,13.91
2023-01-27T21:44:23.223Z,13.86
2023-01-27T21:46:50.000Z,13.78
2023-01-27T21:49:16.614Z,13.80
2023-01-27T21:51:43.458Z,13.75
2023-01-27T21:54:10.502Z,13.67
2023-01-27T21:56:37.303Z,13.74
2023-01-27T21:59:04.756Z,13.61
2023-01-27T22:01:31.831Z,13.62
2023-01-27T22:03:58.841Z,13.55
2023-01-27T22:06:27.817Z,13.52
2023-01-27T22:08:54.664Z,13.52
2023-01-27T22:11:21.358Z,13.62
2023-01-27T22:13:48.033Z,13.51
2023-01-27T22:16:16.117Z,13.32
2023-01-27T22:18:45.769Z,13.40
2023-01-27T22:21:12.662Z,13.37
2023-01-27T22:23:39.447Z,13.33
2023-01-27T22:26:08.076Z,13.24
2023-01-27T22:28:37.222Z,13.24
2023-01-27T22:31:04.201Z,13.19
2023-01-27T22:33:32.428Z,13.12
2023-01-27T22:36:18.772Z,13.03
2023-01-27T22:38:45.574Z,13.01
2023-01-27T22:41:14.012Z,12.99
2023-01-27T22:43:40.637Z,12.99
2023-01-27T22:46:07.353Z,13.00
2023-01-27T22:48:33.983Z,12.94
2023-01-27T22:51:04.737Z,12.90
2023-01-27T22:53:33.870Z,12.84
2023-01-27T22:56:02.262Z,12.82
2023-01-27T22:58:29.591Z,12.82
2023-01-27T23:00:57.280Z,12.80
2023-01-27T23:03:24.715Z,12.74
2023-01-27T23:05:51.429Z,12.76
2023-01-27T23:08:20.889Z,12.75
2023-01-27T23:10:47.849Z,12.74
2023-01-27T23:13:15.015Z,12.66
2023-01-27T23:15:41.583Z,12.66
2023-01-27T23:18:11.344Z,12.64
2023-01-27T23:20:42.558Z,12.66
2023-01-27T23:23:10.111Z,12.61
2023-01-27T23:25:44.535Z,12.67
2023-01-27T23:28:16.441Z,12.55
2023-01-27T23:30:47.389Z,12.54
2023-01-27T23:33:18.623Z,12.55
2023-01-27T23:35:46.176Z,12.54
2023-01-27T23:38:33.245Z,12.49
2023-01-27T23:41:08.795Z,12.45
2023-01-27T23:43:35.697Z,12.43
2023-01-27T23:46:02.450Z,12.36
2023-01-27T23:48:29.417Z,12.37
2023-01-27T23:50:56.034Z,12.38
2023-01-27T23:53:22.843Z,12.35
2023-01-27T23:55:59.841Z,12.27
2023-01-27T23:58:27.721Z,12.32
